createdAt,value
2022-09-24T00:02:17.957Z,100.00
2022-09-24T00:04:54.637Z,100.00
2022-09-24T00:07:31.720Z,100.00
2022-09-24T00:10:13.662Z,100.00
2022-09-24T00:12:44.694Z,100.00
2022-09-24T00:15:18.962Z,100.00
2022-09-24T00:18:01.892Z,100.00
2022-09-24T00:20:37.120Z,100.00
2022-09-24T00:23:15.115Z,100.00
2022-09-24T00:26:13.967Z,100.00
2022-09-24T00:28:57.804Z,100.00
2022-09-24T00:31:40.191Z,100.00
2022-09-24T00:34:20.365Z,100.00
2022-09-24T00:36:55.280Z,100.00
2022-09-24T00:39:34.094Z,100.00
2022-09-24T00:42:02.189Z,100.00
2022-09-24T00:44:44.175Z,100.00
2022-09-24T00:47:22.600Z,100.00
2022-09-24T00:49:49.964Z,100.00
2022-09-24T00:52:17.798Z,100.00
2022-09-24T00:54:44.914Z,100.00
2022-09-24T00:57:12.699Z,100.00
2022-09-24T00:59:41.996Z,100.00
2022-09-24T01:02:08.792Z,100.00
2022-09-24T01:04:36.594Z,100.00
2022-09-24T01:07:03.886Z,100.00
2022-09-24T01:09:30.639Z,100.00
2022-09-24T01:12:15.873Z,100.00
2022-09-24T01:15:06.133Z,100.00
2022-09-24T01:17:43.697Z,100.00
2022-09-24T01:20:31.411Z,100.00
2022-09-24T01:23:07.259Z,100.00
2022-09-24T01:25:36.645Z,100.00
2022-09-24T01:28:24.409Z,100.00
2022-09-24T01:30:55.959Z,100.00
2022-09-24T01:33:25.812Z,100.00
2022-09-24T01:35:57.325Z,100.00
2022-09-24T01:38:33.855Z,100.00
2022-09-24T01:41:02.935Z,100.00
2022-09-24T01:43:30.386Z,100.00
2022-09-24T01:46:00.037Z,100.00
2022-09-24T01:48:27.395Z,100.00
2022-09-24T01:51:07.790Z,100.00
2022-09-24T01:53:46.926Z,100.00
2022-09-24T01:56:22.239Z,100.00
2022-09-24T01:59:23.108Z,100.00
2022-09-24T02:01:57.959Z,100.00
2022-09-24T02:04:27.799Z,100.00
2022-09-24T02:07:00.640Z,100.00
2022-09-24T02:09:40.128Z,100.00
2022-09-24T02:12:27.505Z,100.00
2022-09-24T02:15:00.846Z,100.00
2022-09-24T02:17:32.131Z,100.00
2022-09-24T02:20:03.469Z,100.00
2022-09-24T02:22:31.640Z,100.00
2022-09-24T02:25:01.143Z,100.00
2022-09-24T02:27:28.242Z,100.00
2022-09-24T02:29:59.429Z,100.00
2022-09-24T02:32:31.509Z,100.00
2022-09-24T02:35:02.643Z,100.00
2022-09-24T02:37:35.130Z,100.00
2022-09-24T02:40:04.199Z,100.00
2022-09-24T02:42:31.106Z,100.00
2022-09-24T02:44:59.635Z,100.00
2022-09-24T02:47:26.737Z,100.00
2022-09-24T02:49:53.486Z,100.00
2022-09-24T02:52:20.847Z,100.00
2022-09-24T02:54:47.625Z,100.00
2022-09-24T02:57:14.135Z,100.00
2022-09-24T02:59:40.712Z,100.00
2022-09-24T03:02:07.368Z,100.00
2022-09-24T03:04:34.044Z,100.00
2022-09-24T03:07:00.924Z,100.00
2022-09-24T03:09:28.208Z,100.00
2022-09-24T03:11:55.168Z,100.00
2022-09-24T03:14:21.788Z,100.00
2022-09-24T03:16:48.259Z,100.00
2022-09-24T03:19:14.700Z,100.00
2022-09-24T03:21:41.240Z,100.00
2022-09-24T03:24:07.843Z,100.00
2022-09-24T03:27:36.589Z,100.00
2022-09-24T03:31:24.261Z,100.00
2022-09-24T03:35:12.110Z,100.00
2022-09-24T03:39:00.041Z,100.00
2022-09-24T03:42:48.396Z,100.00
2022-09-24T03:46:36.310Z,100.00
2022-09-24T03:50:23.890Z,100.00
2022-09-24T03:54:12.168Z,100.00
2022-09-24T03:58:00.071Z,100.00
2022-09-24T04:01:48.031Z,100.00
2022-09-24T04:05:35.706Z,100.00
2022-09-24T04:09:23.398Z,100.00
2022-09-24T04:13:11.072Z,100.00
2022-09-24T04:17:01.444Z,100.00
2022-09-24T04:20:49.008Z,100.00
2022-09-24T04:24:36.604Z,100.00
2022-09-24T04:28:24.275Z,100.00
2022-09-24T04:32:13.191Z,100.00
2022-09-24T04:36:00.941Z,100.00
2022-09-24T04:39:48.734Z,100.00
2022-09-24T04:43:37.150Z,100.00
2022-09-24T04:47:24.931Z,100.00
2022-09-24T04:51:13.051Z,100.00
2022-09-24T04:55:01.384Z,100.00
2022-09-24T04:58:49.333Z,100.00
2022-09-24T05:02:37.428Z,100.00
2022-09-24T05:06:25.430Z,100.00
2022-09-24T05:10:13.174Z,100.00
2022-09-24T05:14:00.631Z,100.00
2022-09-24T05:17:48.846Z,100.00
2022-09-24T05:21:36.690Z,100.00
2022-09-24T05:25:24.660Z,100.00
2022-09-24T05:29:12.403Z,100.00
2022-09-24T05:33:00.264Z,100.00
2022-09-24T05:36:47.931Z,100.00
2022-09-24T05:40:34.784Z,100.00
2022-09-24T05:44:22.635Z,100.00
2022-09-24T05:48:10.983Z,100.00
2022-09-24T05:51:58.958Z,100.00
2022-09-24T05:55:46.869Z,100.00
2022-09-24T05:59:34.859Z,100.00
2022-09-24T06:03:22.761Z,100.00
2022-09-24T06:07:10.734Z,100.00
2022-09-24T06:10:58.736Z,100.00
2022-09-24T06:14:47.477Z,100.00
2022-09-24T06:18:36.025Z,100.00
2022-09-24T06:22:28.955Z,100.00
2022-09-24T06:26:17.665Z,100.00
2022-09-24T06:30:06.104Z,100.00
2022-09-24T06:33:54.997Z,100.00
2022-09-24T06:37:45.695Z,100.00
2022-09-24T06:41:33.883Z,100.00
2022-09-24T06:45:21.876Z,100.00
2022-09-24T06:49:09.973Z,100.00
2022-09-24T06:52:58.018Z,100.00
2022-09-24T06:56:45.721Z,100.00
2022-09-24T07:00:34.503Z,100.00
2022-09-24T07:04:22.322Z,100.00
2022-09-24T07:08:10.183Z,100.00
2022-09-24T07:11:58.348Z,100.00
2022-09-24T07:15:46.184Z,100.00
2022-09-24T07:19:33.828Z,100.00
2022-09-24T07:23:22.111Z,100.00
2022-09-24T07:26:49.659Z,100.00
2022-09-24T07:30:07.003Z,100.00
2022-09-24T07:33:26.603Z,100.00
2022-09-24T07:37:06.762Z,100.00
2022-09-24T07:40:54.669Z,100.00
2022-09-24T07:44:45.162Z,100.00
2022-09-24T07:48:17.179Z,100.00
2022-09-24T07:51:55.720Z,100.00
2022-09-24T07:55:44.603Z,100.00
2022-09-24T07:59:32.663Z,100.00
2022-09-24T08:03:21.118Z,100.00
2022-09-24T08:07:11.603Z,100.00
2022-09-24T08:10:52.205Z,100.00
2022-09-24T08:14:40.724Z,100.00
2022-09-24T08:18:29.246Z,100.00
2022-09-24T08:22:01.458Z,100.00
2022-09-24T08:25:50.442Z,100.00
2022-09-24T08:29:39.595Z,100.00
2022-09-24T08:33:27.598Z,100.00
2022-09-24T08:36:59.039Z,100.00
2022-09-24T08:40:37.740Z,100.00
2022-09-24T08:44:30.784Z,100.00
2022-09-24T08:48:13.759Z,100.00
2022-09-24T08:51:54.391Z,98.30
2022-09-24T08:55:24.357Z,99.07
2022-09-24T08:59:11.272Z,96.57
2022-09-24T09:02:18.678Z,89.13
2022-09-24T09:06:27.930Z,87.79
2022-09-24T09:09:58.954Z,90.91
2022-09-24T09:13:30.340Z,86.23
2022-09-24T09:16:53.464Z,87.57
2022-09-24T09:20:22.208Z,87.64
2022-09-24T09:23:56.992Z,84.80
2022-09-24T09:27:21.455Z,83.62
2022-09-24T09:31:09.202Z,77.29
2022-09-24T09:35:05.288Z,84.72
2022-09-24T09:39:02.476Z,76.92
2022-09-24T09:43:00.175Z,75.39
2022-09-24T09:46:53.950Z,79.93
2022-09-24T09:50:44.787Z,75.31
2022-09-24T09:54:37.880Z,79.31
2022-09-24T09:58:01.632Z,72.44
2022-09-24T10:01:50.719Z,75.22
2022-09-24T10:04:41.208Z,77.50
2022-09-24T10:08:12.030Z,73.96
2022-09-24T10:12:00.923Z,78.02
2022-09-24T10:15:40.771Z,72.28
2022-09-24T10:19:29.765Z,69.01
2022-09-24T10:23:18.441Z,71.84
2022-09-24T10:27:10.727Z,65.66
2022-09-24T10:30:58.688Z,66.23
2022-09-24T10:34:44.500Z,68.39
2022-09-24T10:38:22.191Z,65.55
2022-09-24T10:42:08.914Z,62.58
2022-09-24T10:45:56.499Z,61.15
2022-09-24T10:49:44.530Z,59.00
2022-09-24T10:53:42.049Z,59.31
2022-09-24T10:57:05.466Z,62.65
2022-09-24T11:01:03.383Z,58.82
2022-09-24T11:04:38.964Z,49.60
2022-09-24T11:08:39.054Z,47.19
2022-09-24T11:12:24.771Z,48.18
2022-09-24T11:16:33.586Z,51.46
2022-09-24T11:20:19.789Z,50.55
2022-09-24T11:23:53.566Z,48.13
2022-09-24T11:27:29.499Z,51.65
2022-09-24T11:31:32.446Z,50.43
2022-09-24T11:35:29.115Z,50.43
2022-09-24T11:39:22.538Z,54.66
2022-09-24T11:43:13.417Z,51.56
2022-09-24T11:47:13.095Z,50.95
2022-09-24T11:51:00.953Z,51.75
2022-09-24T11:54:48.845Z,52.62
2022-09-24T11:58:32.867Z,55.33
2022-09-24T12:02:20.679Z,55.14
2022-09-24T12:06:07.020Z,54.11
2022-09-24T12:09:54.978Z,51.17
2022-09-24T12:13:55.048Z,53.05
2022-09-24T12:17:46.429Z,50.99
2022-09-24T12:21:29.836Z,52.61
2022-09-24T12:25:21.465Z,53.10
2022-09-24T12:29:00.608Z,50.68
2022-09-24T12:32:42.426Z,49.97
2022-09-24T12:36:44.355Z,51.78
2022-09-24T12:40:34.045Z,50.88
2022-09-24T12:44:34.354Z,49.15
2022-09-24T12:48:24.116Z,49.79
2022-09-24T12:52:14.476Z,48.82
2022-09-24T12:55:54.653Z,46.38
2022-09-24T12:59:43.358Z,45.43
2022-09-24T13:03:32.237Z,46.29
2022-09-24T13:07:23.851Z,46.52
2022-09-24T13:11:17.474Z,46.64
2022-09-24T13:15:13.127Z,46.08
2022-09-24T13:19:01.428Z,46.21
2022-09-24T13:23:01.481Z,46.25
2022-09-24T13:27:02.126Z,47.80
2022-09-24T13:30:48.913Z,47.01
2022-09-24T13:34:37.076Z,46.50
2022-09-24T13:38:23.129Z,48.83
2022-09-24T13:42:21.742Z,50.99
2022-09-24T13:46:10.008Z,51.77
2022-09-24T13:49:45.067Z,51.58
2022-09-24T13:53:39.361Z,50.03
2022-09-24T13:57:32.486Z,47.60
2022-09-24T14:01:01.714Z,47.46
2022-09-24T14:04:43.374Z,46.80
2022-09-24T14:07:33.780Z,46.36
2022-09-24T14:11:11.192Z,47.39
2022-09-24T14:14:51.670Z,49.35
2022-09-24T14:18:25.271Z,48.69
2022-09-24T14:22:15.771Z,46.65
2022-09-24T14:25:55.715Z,45.00
2022-09-24T14:29:43.944Z,48.16
2022-09-24T14:32:52.281Z,48.15
2022-09-24T14:36:19.948Z,46.21
2022-09-24T14:40:08.287Z,46.52
2022-09-24T14:43:59.323Z,48.35
2022-09-24T14:47:18.895Z,47.84
2022-09-24T14:51:10.230Z,47.51
2022-09-24T14:55:06.243Z,46.24
2022-09-24T14:59:03.020Z,47.45
2022-09-24T15:02:23.776Z,48.44
2022-09-24T15:06:12.034Z,51.67
2022-09-24T15:10:05.546Z,55.31
2022-09-24T15:13:53.273Z,54.15
2022-09-24T15:17:50.050Z,50.56
2022-09-24T15:21:19.192Z,49.89
2022-09-24T15:25:02.499Z,50.25
2022-09-24T15:28:51.196Z,54.65
2022-09-24T15:32:39.919Z,58.21
2022-09-24T15:36:09.483Z,59.17
2022-09-24T15:39:57.318Z,63.12
2022-09-24T15:43:45.620Z,66.95
2022-09-24T15:46:47.583Z,73.61
2022-09-24T15:50:09.620Z,69.43
2022-09-24T15:53:15.387Z,69.67
2022-09-24T15:56:32.201Z,75.85
2022-09-24T16:00:11.223Z,81.81
2022-09-24T16:03:59.491Z,85.54
2022-09-24T16:07:17.262Z,93.87
2022-09-24T16:10:58.648Z,100.00
2022-09-24T16:14:18.373Z,100.00
2022-09-24T16:17:38.853Z,100.00
2022-09-24T16:21:01.074Z,100.00
2022-09-24T16:24:32.791Z,100.00
2022-09-24T16:27:38.496Z,100.00
2022-09-24T16:30:45.571Z,100.00
2022-09-24T16:34:33.660Z,100.00
2022-09-24T16:38:03.241Z,100.00
2022-09-24T16:41:51.676Z,100.00
2022-09-24T16:45:14.098Z,100.00
2022-09-24T16:48:43.811Z,100.00
2022-09-24T16:51:47.624Z,100.00
2022-09-24T16:54:48.273Z,100.00
2022-09-24T16:57:49.933Z,100.00
2022-09-24T17:01:07.123Z,100.00
2022-09-24T17:04:35.268Z,100.00
2022-09-24T17:07:17.803Z,100.00
2022-09-24T17:10:41.410Z,100.00
2022-09-24T17:14:00.887Z,100.00
2022-09-24T17:17:50.474Z,100.00
2022-09-24T17:21:11.212Z,100.00
2022-09-24T17:24:41.914Z,100.00
2022-09-24T17:28:03.639Z,100.00
2022-09-24T17:31:26.466Z,100.00
2022-09-24T17:35:06.991Z,100.00
2022-09-24T17:38:52.367Z,100.00
2022-09-24T17:42:25.264Z,100.00
2022-09-24T17:45:54.885Z,100.00
2022-09-24T17:49:43.499Z,100.00
2022-09-24T17:52:35.144Z,100.00
2022-09-24T17:55:53.825Z,100.00
2022-09-24T17:58:52.197Z,100.00
2022-09-24T18:01:32.971Z,100.00
2022-09-24T18:04:54.231Z,100.00
2022-09-24T18:07:49.912Z,100.00
2022-09-24T18:11:44.616Z,100.00
2022-09-24T18:14:55.267Z,100.00
2022-09-24T18:18:36.708Z,100.00
2022-09-24T18:22:05.688Z,100.00
2022-09-24T18:25:16.745Z,100.00
2022-09-24T18:28:25.674Z,100.00
2022-09-24T18:31:52.743Z,100.00
2022-09-24T18:35:13.072Z,100.00
2022-09-24T18:38:36.496Z,100.00
2022-09-24T18:42:20.600Z,100.00
2022-09-24T18:44:54.021Z,100.00
2022-09-24T18:48:01.853Z,100.00
2022-09-24T18:51:25.772Z,100.00
2022-09-24T18:55:04.879Z,100.00
2022-09-24T18:58:53.122Z,100.00
2022-09-24T19:02:31.877Z,100.00
2022-09-24T19:05:58.557Z,100.00
2022-09-24T19:09:13.625Z,100.00
2022-09-24T19:12:41.369Z,100.00
2022-09-24T19:16:13.245Z,100.00
2022-09-24T19:19:37.653Z,100.00
2022-09-24T19:23:19.475Z,100.00
2022-09-24T19:26:46.255Z,100.00
2022-09-24T19:29:58.572Z,100.00
2022-09-24T19:33:19.157Z,100.00
2022-09-24T19:36:42.792Z,100.00
2022-09-24T19:40:06.126Z,100.00
2022-09-24T19:43:45.404Z,100.00
2022-09-24T19:47:34.210Z,100.00
2022-09-24T19:51:22.078Z,100.00
2022-09-24T19:54:30.082Z,100.00
2022-09-24T19:57:51.918Z,100.00
2022-09-24T20:01:22.122Z,100.00
2022-09-24T20:05:11.828Z,100.00
2022-09-24T20:08:29.899Z,100.00
2022-09-24T20:12:18.125Z,100.00
2022-09-24T20:16:07.297Z,100.00
2022-09-24T20:19:48.753Z,100.00
2022-09-24T20:23:17.314Z,100.00
2022-09-24T20:26:36.002Z,100.00
2022-09-24T20:30:24.870Z,100.00
2022-09-24T20:34:14.033Z,100.00
2022-09-24T20:37:36.063Z,100.00
2022-09-24T20:41:08.636Z,100.00
2022-09-24T20:44:36.895Z,100.00
2022-09-24T20:48:24.620Z,100.00
2022-09-24T20:52:12.905Z,100.00
2022-09-24T20:56:01.751Z,100.00
2022-09-24T20:59:30.234Z,100.00
2022-09-24T21:03:31.875Z,100.00
2022-09-24T21:06:55.533Z,100.00
2022-09-24T21:09:51.774Z,100.00
2022-09-24T21:13:28.523Z,100.00
2022-09-24T21:17:16.921Z,100.00
2022-09-24T21:20:58.008Z,100.00
2022-09-24T21:24:41.477Z,100.00
2022-09-24T21:28:09.404Z,100.00
2022-09-24T21:31:26.922Z,100.00
2022-09-24T21:35:15.305Z,100.00
2022-09-24T21:38:53.736Z,100.00
2022-09-24T21:42:41.365Z,100.00
2022-09-24T21:45:44.603Z,100.00
2022-09-24T21:49:34.158Z,100.00
2022-09-24T21:52:42.302Z,100.00
2022-09-24T21:56:30.848Z,100.00
2022-09-24T21:59:41.160Z,100.00
2022-09-24T22:03:09.203Z,100.00
2022-09-24T22:06:57.126Z,100.00
2022-09-24T22:10:45.486Z,100.00
2022-09-24T22:14:05.226Z,100.00
2022-09-24T22:17:42.990Z,100.00
2022-09-24T22:20:32.160Z,100.00
2022-09-24T22:24:00.504Z,100.00
2022-09-24T22:27:26.897Z,100.00
2022-09-24T22:31:04.727Z,100.00
2022-09-24T22:34:51.297Z,100.00
2022-09-24T22:38:00.806Z,100.00
2022-09-24T22:41:30.925Z,100.00
2022-09-24T22:45:09.830Z,100.00
2022-09-24T22:48:30.380Z,100.00
2022-09-24T22:51:39.633Z,100.00
2022-09-24T22:54:50.502Z,100.00
2022-09-24T22:58:18.198Z,100.00
2022-09-24T23:01:39.971Z,100.00
2022-09-24T23:04:27.550Z,100.00
2022-09-24T23:08:01.830Z,100.00
2022-09-24T23:11:32.307Z,100.00
2022-09-24T23:14:12.583Z,100.00
2022-09-24T23:17:13.473Z,100.00
2022-09-24T23:20:44.147Z,100.00
2022-09-24T23:24:12.048Z,100.00
2022-09-24T23:27:29.499Z,100.00
2022-09-24T23:31:17.089Z,100.00
2022-09-24T23:34:51.593Z,100.00
2022-09-24T23:38:39.119Z,100.00
2022-09-24T23:42:26.820Z,100.00
2022-09-24T23:46:14.389Z,100.00
2022-09-24T23:50:02.447Z,100.00
2022-09-24T23:53:31.594Z,100.00
2022-09-24T23:56:18.757Z,100.00
2022-09-24T23:59:23.806Z,100.00
